sensor_id;sensor_type;location;lat;lon;timestamp;pressure;altitude;pressure_sealevel;temperature;humidity
31595;BME280;18200;48.726;8.892;2023-05-11T00:01:56;96550.06;;;26.17;35.53
31595;BME280;18200;48.726;8.892;2023-05-11T00:05:58;96545.88;;;26.31;35.37
31595;BME280;18200;48.726;8.892;2023-05-11T00:09:59;96547.44;;;26.32;34.71
31595;BME280;18200;48.726;8.892;2023-05-11T00:14:00;96548.94;;;26.33;35.33
31595;BME280;18200;48.726;8.892;2023-05-11T00:18:00;96551.09;;;26.38;35.05
31595;BME280;18200;48.726;8.892;2023-05-11T00:22:00;96549.78;;;26.15;35.17
31595;BME280;18200;48.726;8.892;2023-05-11T00:26:01;96538.28;;;26.07;35.44
31595;BME280;18200;48.726;8.892;2023-05-11T00:30:01;96545.66;;;26.52;35.17
31595;BME280;18200;48.726;8.892;2023-05-11T00:34:01;96542.28;;;26.57;34.45
31595;BME280;18200;48.726;8.892;2023-05-11T00:38:02;96538.28;;;26.07;35.59
31595;BME280;18200;48.726;8.892;2023-05-11T00:42:02;96527.44;;;26.04;34.90
31595;BME280;18200;48.726;8.892;2023-05-11T00:46:03;96533.97;;;26.34;35.00
31595;BME280;18200;48.726;8.892;2023-05-11T00:50:04;96535.09;;;26.60;34.42
31595;BME280;18200;48.726;8.892;2023-05-11T00:54:05;96536.00;;;26.15;34.80
31595;BME280;18200;48.726;8.892;2023-05-11T00:58:08;96531.41;;;26.21;34.57
31595;BME280;18200;48.726;8.892;2023-05-11T01:02:08;96532.38;;;26.51;34.93
31595;BME280;18200;48.726;8.892;2023-05-11T01:06:15;96530.59;;;26.30;34.60
31595;BME280;18200;48.726;8.892;2023-05-11T01:10:28;96526.09;;;25.54;36.04
31595;BME280;18200;48.726;8.892;2023-05-11T01:14:40;96529.09;;;25.11;36.87
31595;BME280;18200;48.726;8.892;2023-05-11T01:18:48;96534.94;;;25.94;35.60
31595;BME280;18200;48.726;8.892;2023-05-11T01:27:20;96526.47;;;26.25;34.80
31595;BME280;18200;48.726;8.892;2023-05-11T01:31:28;96531.09;;;25.92;35.60
31595;BME280;18200;48.726;8.892;2023-05-11T01:35:31;96520.25;;;26.06;35.50
31595;BME280;18200;48.726;8.892;2023-05-11T01:39:40;96531.25;;;26.15;34.97
31595;BME280;18200;48.726;8.892;2023-05-11T01:43:44;96533.00;;;26.37;35.47
31595;BME280;18200;48.726;8.892;2023-05-11T01:47:48;96526.81;;;26.18;35.40
31595;BME280;18200;48.726;8.892;2023-05-11T01:51:50;96525.41;;;26.32;35.49
31595;BME280;18200;48.726;8.892;2023-05-11T01:55:51;96530.31;;;26.28;35.64
31595;BME280;18200;48.726;8.892;2023-05-11T01:59:54;96527.59;;;25.91;35.75
31595;BME280;18200;48.726;8.892;2023-05-11T02:03:57;96530.31;;;25.28;36.74
31595;BME280;18200;48.726;8.892;2023-05-11T02:08:01;96531.88;;;26.01;35.85
31595;BME280;18200;48.726;8.892;2023-05-11T02:12:04;96522.09;;;25.82;36.14
31595;BME280;18200;48.726;8.892;2023-05-11T02:16:07;96533.69;;;25.14;36.96
31595;BME280;18200;48.726;8.892;2023-05-11T02:20:09;96527.63;;;25.73;36.18
31595;BME280;18200;48.726;8.892;2023-05-11T02:24:11;96534.94;;;26.12;35.89
31595;BME280;18200;48.726;8.892;2023-05-11T02:28:11;96535.53;;;26.17;34.97
31595;BME280;18200;48.726;8.892;2023-05-11T02:32:16;96537.38;;;25.83;35.64
31595;BME280;18200;48.726;8.892;2023-05-11T02:36:20;96543.47;;;25.15;37.13
31595;BME280;18200;48.726;8.892;2023-05-11T02:40:28;96532.22;;;25.67;36.56
31595;BME280;18200;48.726;8.892;2023-05-11T02:44:31;96531.28;;;25.88;35.80
31595;BME280;18200;48.726;8.892;2023-05-11T02:48:37;96529.41;;;25.94;36.18
31595;BME280;18200;48.726;8.892;2023-05-11T02:52:42;96525.63;;;25.83;35.79
31595;BME280;18200;48.726;8.892;2023-05-11T02:56:44;96532.47;;;26.05;35.34
31595;BME280;18200;48.726;8.892;2023-05-11T03:00:45;96529.72;;;26.05;35.20
31595;BME280;18200;48.726;8.892;2023-05-11T03:04:45;96528.22;;;25.77;35.75
31595;BME280;18200;48.726;8.892;2023-05-11T03:08:47;96529.16;;;25.74;35.84
31595;BME280;18200;48.726;8.892;2023-05-11T03:12:49;96522.97;;;26.15;35.49
31595;BME280;18200;48.726;8.892;2023-05-11T03:16:51;96524.19;;;26.24;34.96
31595;BME280;18200;48.726;8.892;2023-05-11T03:20:51;96522.72;;;25.86;35.73
31595;BME280;18200;48.726;8.892;2023-05-11T03:24:52;96521.81;;;25.89;35.42
31595;BME280;18200;48.726;8.892;2023-05-11T03:28:54;96515.66;;;25.85;35.86
31595;BME280;18200;48.726;8.892;2023-05-11T03:32:56;96513.56;;;25.80;35.93
31595;BME280;18200;48.726;8.892;2023-05-11T03:36:58;96513.25;;;25.60;36.61
31595;BME280;18200;48.726;8.892;2023-05-11T03:41:00;96512.66;;;25.74;36.62
31595;BME280;18200;48.726;8.892;2023-05-11T03:45:06;96511.34;;;26.02;35.88
31595;BME280;18200;48.726;8.892;2023-05-11T03:49:07;96509.44;;;25.58;36.25
31595;BME280;18200;48.726;8.892;2023-05-11T03:53:09;96506.97;;;25.87;36.34
31595;BME280;18200;48.726;8.892;2023-05-11T03:57:10;96506.81;;;26.08;36.07
31595;BME280;18200;48.726;8.892;2023-05-11T04:01:11;96511.22;;;26.15;35.54
31595;BME280;18200;48.726;8.892;2023-05-11T04:05:12;96506.81;;;26.08;35.63
31595;BME280;18200;48.726;8.892;2023-05-11T04:09:14;96503.91;;;25.67;36.66
31595;BME280;18200;48.726;8.892;2023-05-11T04:13:14;96505.59;;;25.82;35.52
31595;BME280;18200;48.726;8.892;2023-05-11T04:17:15;96504.84;;;25.64;35.97
31595;BME280;18200;48.726;8.892;2023-05-11T04:21:18;96511.75;;;25.59;36.71
31595;BME280;18200;48.726;8.892;2023-05-11T04:25:18;96508.38;;;25.46;36.42
31595;BME280;18200;48.726;8.892;2023-05-11T04:29:18;96497.97;;;25.59;36.35
31595;BME280;18200;48.726;8.892;2023-05-11T04:33:19;96500.38;;;25.93;36.02
31595;BME280;18200;48.726;8.892;2023-05-11T04:37:20;96511.38;;;26.11;36.26
31595;BME280;18200;48.726;8.892;2023-05-11T04:41:20;96509.28;;;25.52;36.17
31595;BME280;18200;48.726;8.892;2023-05-11T04:45:21;96511.69;;;25.86;36.27
31595;BME280;18200;48.726;8.892;2023-05-11T04:49:22;96512.13;;;26.12;36.00
31595;BME280;18200;48.726;8.892;2023-05-11T04:53:23;96511.97;;;26.15;35.76
31595;BME280;18200;48.726;8.892;2023-05-11T04:57:25;96519.94;;;26.13;35.21
31595;BME280;18200;48.726;8.892;2023-05-11T05:01:25;96512.88;;;26.03;35.95
31595;BME280;18200;48.726;8.892;2023-05-11T05:05:26;96515.34;;;25.92;36.22
31595;BME280;18200;48.726;8.892;2023-05-11T05:09:26;96520.25;;;26.06;35.78
31595;BME280;18200;48.726;8.892;2023-05-11T05:13:26;96516.91;;;25.93;35.94
31595;BME280;18200;48.726;8.892;2023-05-11T05:17:27;96516.59;;;25.82;36.14
31595;BME280;18200;48.726;8.892;2023-05-11T05:21:28;96515.34;;;26.10;36.00
31595;BME280;18200;48.726;8.892;2023-05-11T05:25:30;96517.78;;;26.59;35.98
31595;BME280;18200;48.726;8.892;2023-05-11T05:29:30;96518.97;;;26.67;34.85
31595;BME280;18200;48.726;8.892;2023-05-11T05:33:31;96514.88;;;26.54;34.97
31595;BME280;18200;48.726;8.892;2023-05-11T05:37:32;96522.78;;;26.70;34.82
31595;BME280;18200;48.726;8.892;2023-05-11T05:41:32;96523.78;;;26.90;34.20
31595;BME280;18200;48.726;8.892;2023-05-11T05:45:34;96523.66;;;26.85;34.64
31595;BME280;18200;48.726;8.892;2023-05-11T05:49:35;96524.13;;;27.07;34.22
31595;BME280;18200;48.726;8.892;2023-05-11T05:53:37;96517.25;;;27.03;34.19
31595;BME280;18200;48.726;8.892;2023-05-11T05:57:38;96527.53;;;26.69;34.04
31595;BME280;18200;48.726;8.892;2023-05-11T06:01:38;96521.50;;;27.13;33.65
31595;BME280;18200;48.726;8.892;2023-05-11T06:05:46;96524.34;;;26.95;34.56
31595;BME280;18200;48.726;8.892;2023-05-11T06:09:46;96530.06;;;25.80;35.71
31595;BME280;18200;48.726;8.892;2023-05-11T06:13:48;96529.09;;;26.01;35.71
31595;BME280;18200;48.726;8.892;2023-05-11T06:17:48;96530.78;;;26.17;35.17
31595;BME280;18200;48.726;8.892;2023-05-11T06:21:48;96521.25;;;26.69;34.04
31595;BME280;18200;48.726;8.892;2023-05-11T06:25:50;96521.84;;;27.06;33.46
31595;BME280;18200;48.726;8.892;2023-05-11T06:29:50;96522.41;;;25.84;34.95
31595;BME280;18200;48.726;8.892;2023-05-11T06:33:51;96533.53;;;27.24;32.58
31595;BME280;18200;48.726;8.892;2023-05-11T06:37:58;96522.69;;;26.04;35.01
31595;BME280;18200;48.726;8.892;2023-05-11T06:41:59;96523.88;;;26.96;33.43
31595;BME280;18200;48.726;8.892;2023-05-11T06:46:02;96526.63;;;26.22;34.32
31595;BME280;18200;48.726;8.892;2023-05-11T06:50:02;96532.34;;;25.82;34.96
31595;BME280;18200;48.726;8.892;2023-05-11T06:54:03;96526.00;;;26.68;33.95
31595;BME280;18200;48.726;8.892;2023-05-11T06:58:03;96523.88;;;26.22;34.00
31595;BME280;18200;48.726;8.892;2023-05-11T07:02:04;96524.44;;;26.35;33.75
31595;BME280;18200;48.726;8.892;2023-05-11T07:06:05;96523.28;;;26.92;32.75
31595;BME280;18200;48.726;8.892;2023-05-11T07:10:06;96534.63;;;25.83;34.85
31595;BME280;18200;48.726;8.892;2023-05-11T07:14:06;96539.41;;;25.47;34.49
31595;BME280;18200;48.726;8.892;2023-05-11T07:18:07;96539.75;;;27.10;32.77
31595;BME280;18200;48.726;8.892;2023-05-11T07:22:07;96541.81;;;26.59;33.44
31595;BME280;18200;48.726;8.892;2023-05-11T07:26:08;96537.38;;;26.10;33.83
31595;BME280;18200;48.726;8.892;2023-05-11T07:30:08;96547.94;;;26.63;33.39
31595;BME280;18200;48.726;8.892;2023-05-11T07:34:09;96543.66;;;26.62;33.46
31595;BME280;18200;48.726;8.892;2023-05-11T07:38:10;96550.06;;;27.24;33.07
31595;BME280;18200;48.726;8.892;2023-05-11T07:42:11;96555.97;;;26.43;33.85
31595;BME280;18200;48.726;8.892;2023-05-11T07:46:12;96553.78;;;26.98;33.10
31595;BME280;18200;48.726;8.892;2023-05-11T07:50:12;96552.25;;;26.55;33.77
31595;BME280;18200;48.726;8.892;2023-05-11T07:54:13;96547.47;;;26.97;32.61
31595;BME280;18200;48.726;8.892;2023-05-11T07:58:13;96551.09;;;26.38;33.88
31595;BME280;18200;48.726;8.892;2023-05-11T08:02:13;96552.06;;;27.47;32.67
31595;BME280;18200;48.726;8.892;2023-05-11T08:06:14;96547.03;;;27.84;32.13
31595;BME280;18200;48.726;8.892;2023-05-11T08:10:14;96548.03;;;27.34;32.82
31595;BME280;18200;48.726;8.892;2023-05-11T08:14:15;96550.28;;;26.88;33.39
31595;BME280;18200;48.726;8.892;2023-05-11T08:18:16;96544.88;;;27.64;33.36
31595;BME280;18200;48.726;8.892;2023-05-11T08:22:17;96550.44;;;27.17;32.64
31595;BME280;18200;48.726;8.892;2023-05-11T08:26:17;96557.69;;;26.73;34.02
31595;BME280;18200;48.726;8.892;2023-05-11T08:30:18;96551.47;;;25.49;36.11
31595;BME280;18200;48.726;8.892;2023-05-11T08:34:18;96547.47;;;26.13;34.90
31595;BME280;18200;48.726;8.892;2023-05-11T08:38:18;96544.97;;;26.34;35.55
31595;BME280;18200;48.726;8.892;2023-05-11T08:42:23;96550.28;;;27.83;32.91
31595;BME280;18200;48.726;8.892;2023-05-11T08:46:26;96548.03;;;26.36;34.63
31595;BME280;18200;48.726;8.892;2023-05-11T08:50:28;96553.63;;;26.50;35.26
31595;BME280;18200;48.726;8.892;2023-05-11T08:54:29;96555.78;;;27.83;32.58
31595;BME280;18200;48.726;8.892;2023-05-11T08:58:29;96548.19;;;27.30;32.97
31595;BME280;18200;48.726;8.892;2023-05-11T09:02:31;96564.00;;;27.92;33.12
31595;BME280;18200;48.726;8.892;2023-05-11T09:06:32;96548.38;;;27.03;33.79
31595;BME280;18200;48.726;8.892;2023-05-11T09:10:35;96550.34;;;27.35;33.15
31595;BME280;18200;48.726;8.892;2023-05-11T09:14:36;96548.84;;;27.02;33.21
31595;BME280;18200;48.726;8.892;2023-05-11T09:18:51;96552.84;;;26.59;34.83
31595;BME280;18200;48.726;8.892;2023-05-11T09:22:53;96556.38;;;26.92;33.16
31595;BME280;18200;48.726;8.892;2023-05-11T09:27:07;96548.53;;;27.71;31.80
31595;BME280;18200;48.726;8.892;2023-05-11T09:31:08;96542.47;;;27.19;32.34
31595;BME280;18200;48.726;8.892;2023-05-11T09:35:18;96546.94;;;27.40;34.07
31595;BME280;18200;48.726;8.892;2023-05-11T09:39:30;96550.22;;;26.04;35.78
31595;BME280;18200;48.726;8.892;2023-05-11T09:43:31;96541.63;;;26.21;35.24
31595;BME280;18200;48.726;8.892;2023-05-11T09:47:38;96537.66;;;26.72;34.01
31595;BME280;18200;48.726;8.892;2023-05-11T09:51:39;96536.66;;;27.17;33.96
31595;BME280;18200;48.726;8.892;2023-05-11T09:55:53;96539.00;;;26.77;33.46
31595;BME280;18200;48.726;8.892;2023-05-11T09:59:55;96537.09;;;25.36;35.55
31595;BME280;18200;48.726;8.892;2023-05-11T10:03:57;96546.97;;;26.24;34.78
31595;BME280;18200;48.726;8.892;2023-05-11T10:08:01;96540.47;;;27.43;33.08
31595;BME280;18200;48.726;8.892;2023-05-11T10:12:04;96542.09;;;25.28;36.02
31595;BME280;18200;48.726;8.892;2023-05-11T10:16:06;96542.16;;;25.74;35.55
31595;BME280;18200;48.726;8.892;2023-05-11T10:20:09;96551.78;;;24.53;37.83
31595;BME280;18200;48.726;8.892;2023-05-11T10:24:10;96540.63;;;24.79;38.24
31595;BME280;18200;48.726;8.892;2023-05-11T10:28:10;96542.72;;;25.23;37.39
31595;BME280;18200;48.726;8.892;2023-05-11T10:32:12;96531.91;;;25.74;36.11
31595;BME280;18200;48.726;8.892;2023-05-11T10:36:12;96535.88;;;25.64;36.41
31595;BME280;18200;48.726;8.892;2023-05-11T10:40:13;96530.47;;;26.06;36.47
31595;BME280;18200;48.726;8.892;2023-05-11T10:53:28;96528.84;;;25.72;37.11
31595;BME280;18200;48.726;8.892;2023-05-11T11:01:57;96530.34;;;25.37;36.98
31595;BME280;18200;48.726;8.892;2023-05-11T11:06:01;96525.44;;;26.13;35.12
31595;BME280;18200;48.726;8.892;2023-05-11T11:10:02;96515.25;;;26.47;34.70
31595;BME280;18200;48.726;8.892;2023-05-11T11:14:08;96517.50;;;25.79;35.46
31595;BME280;18200;48.726;8.892;2023-05-11T11:18:23;96517.94;;;26.14;34.35
31595;BME280;18200;48.726;8.892;2023-05-11T11:26:50;96522.06;;;26.00;33.67
31595;BME280;18200;48.726;8.892;2023-05-11T11:31:25;96520.25;;;25.88;33.63
31595;BME280;18200;48.726;8.892;2023-05-11T11:43:43;96517.41;;;25.47;34.35
31595;BME280;18200;48.726;8.892;2023-05-11T11:48:07;96517.75;;;26.27;32.75
31595;BME280;18200;48.726;8.892;2023-05-11T12:00:27;96503.88;;;26.86;32.94
31595;BME280;18200;48.726;8.892;2023-05-11T12:04:35;96503.13;;;25.03;34.74
31595;BME280;18200;48.726;8.892;2023-05-11T12:08:39;96508.47;;;27.37;31.97
31595;BME280;18200;48.726;8.892;2023-05-11T12:12:44;96497.31;;;27.84;30.54
31595;BME280;18200;48.726;8.892;2023-05-11T12:17:05;96502.22;;;26.80;31.09
31595;BME280;18200;48.726;8.892;2023-05-11T12:21:27;96510.16;;;24.64;34.09
31595;BME280;18200;48.726;8.892;2023-05-11T12:25:28;96501.91;;;25.04;33.45
31595;BME280;18200;48.726;8.892;2023-05-11T12:29:28;96511.81;;;26.19;32.62
31595;BME280;18200;48.726;8.892;2023-05-11T12:33:29;96496.38;;;26.12;31.26
31595;BME280;18200;48.726;8.892;2023-05-11T12:37:30;96499.53;;;26.29;32.20
31595;BME280;18200;48.726;8.892;2023-05-11T12:41:30;96493.53;;;28.40;28.94
31595;BME280;18200;48.726;8.892;2023-05-11T12:45:31;96492.81;;;27.19;30.73
31595;BME280;18200;48.726;8.892;2023-05-11T12:49:31;96488.56;;;26.11;32.34
31595;BME280;18200;48.726;8.892;2023-05-11T12:53:35;96487.63;;;27.12;31.11
31595;BME280;18200;48.726;8.892;2023-05-11T12:57:38;96485.69;;;26.80;31.46
31595;BME280;18200;48.726;8.892;2023-05-11T13:01:38;96481.16;;;26.68;31.43
31595;BME280;18200;48.726;8.892;2023-05-11T13:05:39;96482.16;;;27.27;30.03
31595;BME280;18200;48.726;8.892;2023-05-11T13:09:40;96470.06;;;27.62;28.82
31595;BME280;18200;48.726;8.892;2023-05-11T13:13:41;96466.81;;;25.53;32.35
31595;BME280;18200;48.726;8.892;2023-05-11T13:17:42;96465.88;;;28.40;29.25
31595;BME280;18200;48.726;8.892;2023-05-11T13:21:45;96458.69;;;27.99;28.73
31595;BME280;18200;48.726;8.892;2023-05-11T13:29:47;96456.56;;;28.23;28.98
31595;BME280;18200;48.726;8.892;2023-05-11T13:33:51;96456.00;;;27.75;29.74
31595;BME280;18200;48.726;8.892;2023-05-11T13:37:51;96461.63;;;28.24;28.93
31595;BME280;18200;48.726;8.892;2023-05-11T13:41:51;96446.44;;;29.24;26.90
31595;BME280;18200;48.726;8.892;2023-05-11T13:45:52;96453.06;;;28.72;28.09
31595;BME280;18200;48.726;8.892;2023-05-11T13:49:52;96452.50;;;29.48;27.33
31595;BME280;18200;48.726;8.892;2023-05-11T13:53:54;96446.84;;;29.37;26.75
31595;BME280;18200;48.726;8.892;2023-05-11T13:57:54;96447.41;;;29.67;26.00
31595;BME280;18200;48.726;8.892;2023-05-11T14:01:55;96452.38;;;27.84;27.69
31595;BME280;18200;48.726;8.892;2023-05-11T14:05:56;96438.59;;;28.62;27.69
31595;BME280;18200;48.726;8.892;2023-05-11T14:09:57;96442.50;;;27.92;27.70
31595;BME280;18200;48.726;8.892;2023-05-11T14:13:57;96441.22;;;28.71;27.46
31595;BME280;18200;48.726;8.892;2023-05-11T14:17:57;96435.47;;;30.43;25.37
31595;BME280;18200;48.726;8.892;2023-05-11T14:21:59;96427.78;;;30.27;25.58
31595;BME280;18200;48.726;8.892;2023-05-11T14:26:00;96433.50;;;29.36;26.30
31595;BME280;18200;48.726;8.892;2023-05-11T14:30:00;96419.97;;;28.28;27.19
31595;BME280;18200;48.726;8.892;2023-05-11T14:34:03;96435.59;;;28.31;28.20
31595;BME280;18200;48.726;8.892;2023-05-11T14:38:03;96429.91;;;28.89;27.12
31595;BME280;18200;48.726;8.892;2023-05-11T14:42:04;96419.13;;;29.83;25.04
31595;BME280;18200;48.726;8.892;2023-05-11T14:46:05;96421.94;;;28.77;26.44
31595;BME280;18200;48.726;8.892;2023-05-11T14:50:06;96408.84;;;29.38;26.04
31595;BME280;18200;48.726;8.892;2023-05-11T14:54:06;96422.06;;;28.33;27.51
31595;BME280;18200;48.726;8.892;2023-05-11T14:58:07;96415.41;;;28.25;28.04
31595;BME280;18200;48.726;8.892;2023-05-11T15:02:08;96411.44;;;27.67;28.45
31595;BME280;18200;48.726;8.892;2023-05-11T15:06:08;96411.63;;;28.77;27.93
31595;BME280;18200;48.726;8.892;2023-05-11T15:10:09;96408.47;;;29.04;27.56
31595;BME280;18200;48.726;8.892;2023-05-11T15:14:10;96414.13;;;30.18;24.97
31595;BME280;18200;48.726;8.892;2023-05-11T15:18:10;96414.44;;;29.18;26.14
31595;BME280;18200;48.726;8.892;2023-05-11T15:22:13;96421.72;;;27.38;28.97
31595;BME280;18200;48.726;8.892;2023-05-11T15:26:13;96422.47;;;27.53;29.21
31595;BME280;18200;48.726;8.892;2023-05-11T15:30:14;96415.34;;;27.08;28.19
31595;BME280;18200;48.726;8.892;2023-05-11T15:34:15;96413.53;;;28.02;27.84
31595;BME280;18200;48.726;8.892;2023-05-11T15:38:15;96411.28;;;28.70;28.68
31595;BME280;18200;48.726;8.892;2023-05-11T15:42:16;96398.19;;;29.56;26.19
31595;BME280;18200;48.726;8.892;2023-05-11T15:46:16;96411.28;;;30.38;26.15
31595;BME280;18200;48.726;8.892;2023-05-11T15:50:17;96410.16;;;29.68;26.92
31595;BME280;18200;48.726;8.892;2023-05-11T15:54:17;96424.38;;;27.47;28.57
31595;BME280;18200;48.726;8.892;2023-05-11T15:58:18;96407.97;;;29.52;26.69
31595;BME280;18200;48.726;8.892;2023-05-11T16:02:18;96411.19;;;30.70;24.96
31595;BME280;18200;48.726;8.892;2023-05-11T16:06:18;96411.22;;;29.25;26.33
31595;BME280;18200;48.726;8.892;2023-05-11T16:10:19;96418.09;;;27.90;28.39
31595;BME280;18200;48.726;8.892;2023-05-11T16:14:19;96407.25;;;29.77;26.19
31595;BME280;18200;48.726;8.892;2023-05-11T16:18:20;96409.41;;;30.30;25.29
31595;BME280;18200;48.726;8.892;2023-05-11T16:22:20;96411.72;;;30.31;25.48
31595;BME280;18200;48.726;8.892;2023-05-11T16:26:21;96413.31;;;28.55;27.35
31595;BME280;18200;48.726;8.892;2023-05-11T16:30:22;96405.19;;;30.34;25.81
31595;BME280;18200;48.726;8.892;2023-05-11T16:34:22;96399.84;;;30.67;25.66
31595;BME280;18200;48.726;8.892;2023-05-11T16:38:23;96400.75;;;31.01;26.13
31595;BME280;18200;48.726;8.892;2023-05-11T16:42:23;96407.63;;;31.17;25.13
31595;BME280;18200;48.726;8.892;2023-05-11T16:46:23;96406.41;;;30.76;26.05
31595;BME280;18200;48.726;8.892;2023-05-11T16:50:24;96405.53;;;30.95;25.71
31595;BME280;18200;48.726;8.892;2023-05-11T16:54:24;96404.31;;;28.94;28.15
31595;BME280;18200;48.726;8.892;2023-05-11T16:58:25;96401.78;;;30.98;25.27
31595;BME280;18200;48.726;8.892;2023-05-11T17:02:25;96406.25;;;31.66;24.51
31595;BME280;18200;48.726;8.892;2023-05-11T17:06:26;96406.88;;;30.63;25.39
31595;BME280;18200;48.726;8.892;2023-05-11T17:10:26;96415.81;;;30.41;25.86
31595;BME280;18200;48.726;8.892;2023-05-11T17:14:27;96409.16;;;29.97;26.24
31595;BME280;18200;48.726;8.892;2023-05-11T17:18:27;96411.38;;;29.87;26.97
31595;BME280;18200;48.726;8.892;2023-05-11T17:22:27;96398.84;;;29.00;27.89
31595;BME280;18200;48.726;8.892;2023-05-11T17:26:28;96413.69;;;28.27;29.00
31595;BME280;18200;48.726;8.892;2023-05-11T17:30:29;96413.16;;;28.78;28.78
31595;BME280;18200;48.726;8.892;2023-05-11T17:34:29;96409.13;;;28.79;27.90
31595;BME280;18200;48.726;8.892;2023-05-11T17:38:30;96416.56;;;29.79;27.15
31595;BME280;18200;48.726;8.892;2023-05-11T17:42:30;96411.25;;;29.50;28.01
31595;BME280;18200;48.726;8.892;2023-05-11T17:46:31;96407.88;;;28.60;29.11
31595;BME280;18200;48.726;8.892;2023-05-11T17:50:31;96416.88;;;27.62;30.91
31595;BME280;18200;48.726;8.892;2023-05-11T17:54:32;96420.91;;;26.99;31.04
31595;BME280;18200;48.726;8.892;2023-05-11T17:58:32;96420.50;;;27.15;30.84
31595;BME280;18200;48.726;8.892;2023-05-11T18:02:33;96418.50;;;27.83;30.04
31595;BME280;18200;48.726;8.892;2023-05-11T18:06:33;96420.50;;;29.01;28.91
31595;BME280;18200;48.726;8.892;2023-05-11T18:10:34;96410.06;;;28.36;29.46
31595;BME280;18200;48.726;8.892;2023-05-11T18:14:34;96427.59;;;28.33;29.48
31595;BME280;18200;48.726;8.892;2023-05-11T18:18:35;96418.31;;;27.57;30.62
31595;BME280;18200;48.726;8.892;2023-05-11T18:22:35;96420.00;;;27.40;30.61
31595;BME280;18200;48.726;8.892;2023-05-11T18:26:36;96424.19;;;27.50;31.28
31595;BME280;18200;48.726;8.892;2023-05-11T18:30:37;96428.00;;;27.82;30.71
31595;BME280;18200;48.726;8.892;2023-05-11T18:34:37;96429.56;;;27.98;30.11
31595;BME280;18200;48.726;8.892;2023-05-11T18:38:42;96431.75;;;28.58;30.13
31595;BME280;18200;48.726;8.892;2023-05-11T18:42:43;96424.69;;;28.42;29.16
31595;BME280;18200;48.726;8.892;2023-05-11T18:46:43;96431.00;;;28.42;29.54
31595;BME280;18200;48.726;8.892;2023-05-11T18:50:44;96433.69;;;28.22;29.79
31595;BME280;18200;48.726;8.892;2023-05-11T18:54:44;96441.53;;;27.80;30.30
31595;BME280;18200;48.726;8.892;2023-05-11T18:58:45;96440.19;;;28.19;30.25
31595;BME280;18200;48.726;8.892;2023-05-11T19:02:45;96437.66;;;28.51;28.95
31595;BME280;18200;48.726;8.892;2023-05-11T19:06:47;96451.16;;;28.14;29.25
31595;BME280;18200;48.726;8.892;2023-05-11T19:10:47;96451.25;;;28.05;29.60
31595;BME280;18200;48.726;8.892;2023-05-11T19:14:48;96456.34;;;28.41;30.15
31595;BME280;18200;48.726;8.892;2023-05-11T19:18:48;96455.75;;;28.52;29.33
31595;BME280;18200;48.726;8.892;2023-05-11T19:22:49;96457.97;;;28.82;29.51
31595;BME280;18200;48.726;8.892;2023-05-11T19:26:49;96466.06;;;28.51;29.11
31595;BME280;18200;48.726;8.892;2023-05-11T19:31:01;96467.22;;;27.86;30.77
31595;BME280;18200;48.726;8.892;2023-05-11T19:35:03;96466.84;;;27.93;30.59
31595;BME280;18200;48.726;8.892;2023-05-11T19:39:03;96460.66;;;27.84;31.07
31595;BME280;18200;48.726;8.892;2023-05-11T19:43:04;96464.53;;;27.48;31.16
31595;BME280;18200;48.726;8.892;2023-05-11T19:47:04;96467.50;;;26.73;33.10
31595;BME280;18200;48.726;8.892;2023-05-11T19:51:06;96475.59;;;27.62;31.81
31595;BME280;18200;48.726;8.892;2023-05-11T19:55:06;96475.53;;;27.33;32.41
31595;BME280;18200;48.726;8.892;2023-05-11T19:59:07;96480.66;;;27.02;32.49
31595;BME280;18200;48.726;8.892;2023-05-11T20:03:07;96476.63;;;27.27;33.07
31595;BME280;18200;48.726;8.892;2023-05-11T20:07:08;96478.19;;;27.28;32.68
31595;BME280;18200;48.726;8.892;2023-05-11T20:11:09;96478.75;;;26.52;33.61
31595;BME280;18200;48.726;8.892;2023-05-11T20:15:10;96477.41;;;26.14;34.13
31595;BME280;18200;48.726;8.892;2023-05-11T20:19:10;96467.41;;;27.15;32.56
31595;BME280;18200;48.726;8.892;2023-05-11T20:23:11;96471.00;;;26.83;33.38
31595;BME280;18200;48.726;8.892;2023-05-11T20:27:11;96466.50;;;27.09;32.90
31595;BME280;18200;48.726;8.892;2023-05-11T20:31:11;96480.19;;;27.04;33.00
31595;BME280;18200;48.726;8.892;2023-05-11T20:35:12;96466.97;;;26.84;33.03
31595;BME280;18200;48.726;8.892;2023-05-11T20:39:12;96465.34;;;27.01;32.79
31595;BME280;18200;48.726;8.892;2023-05-11T20:43:13;96456.81;;;27.14;32.58
31595;BME280;18200;48.726;8.892;2023-05-11T20:47:13;96454.53;;;27.12;32.81
31595;BME280;18200;48.726;8.892;2023-05-11T20:51:13;96462.28;;;26.99;33.41
31595;BME280;18200;48.726;8.892;2023-05-11T20:55:14;96465.75;;;26.85;33.03
31595;BME280;18200;48.726;8.892;2023-05-11T20:59:15;96462.53;;;26.54;33.50
31595;BME280;18200;48.726;8.892;2023-05-11T21:03:15;96467.94;;;26.81;33.75
31595;BME280;18200;48.726;8.892;2023-05-11T21:07:15;96465.97;;;26.40;34.14
31595;BME280;18200;48.726;8.892;2023-05-11T21:11:16;96458.06;;;26.56;34.15
31595;BME280;18200;48.726;8.892;2023-05-11T21:15:17;96463.03;;;26.10;34.55
31595;BME280;18200;48.726;8.892;2023-05-11T21:19:17;96463.38;;;26.69;33.62
31595;BME280;18200;48.726;8.892;2023-05-11T21:23:18;96469.13;;;26.05;34.99
31595;BME280;18200;48.726;8.892;2023-05-11T21:27:19;96463.63;;;26.05;35.87
31595;BME280;18200;48.726;8.892;2023-05-11T21:31:19;96465.66;;;26.47;34.67
31595;BME280;18200;48.726;8.892;2023-05-11T21:35:19;96470.22;;;25.99;35.57
31595;BME280;18200;48.726;8.892;2023-05-11T21:39:20;96464.19;;;26.60;34.43
31595;BME280;18200;48.726;8.892;2023-05-11T21:43:21;96467.28;;;26.86;34.03
31595;BME280;18200;48.726;8.892;2023-05-11T21:47:21;96467.31;;;26.11;34.55
31595;BME280;18200;48.726;8.892;2023-05-11T21:51:21;96464.63;;;26.35;34.73
31595;BME280;18200;48.726;8.892;2023-05-11T21:55:22;96461.47;;;26.84;34.40
31595;BME280;18200;48.726;8.892;2023-05-11T21:59:22;96460.34;;;26.58;34.38
31595;BME280;18200;48.726;8.892;2023-05-11T22:03:25;96467.38;;;26.68;34.07